Terminal Aerodrome Forecast
Issued by NWS Wilmington, OH

Current Version | Previous Version | Text Only | Print | Product List | Glossary Off
Versions: 1 2 3 4 5 6 7 8 9 10 11 12

000
FTUS41 KILN 182339
TAFDAY
TAF
KDAY 182339Z 1900/1924 24006KT P6SM SKC
     FM190900 22004KT P6SM BKN120
     FM191300 22007KT P6SM VCSH BKN060 OVC100
     FM191600 28010G18KT P6SM BKN040
     FM192000 30008KT P6SM SKC=

USA.gov is the U.S. government's official web portal to all federal, state and local government web resources and services.